createdAt,value
2022-10-09T00:27:16.506Z,35.64
2022-10-09T00:47:16.496Z,35.64
2022-10-09T01:07:17.258Z,35.65
2022-10-09T01:27:17.248Z,35.65
2022-10-09T01:47:17.240Z,35.65
2022-10-09T02:07:17.235Z,35.65
2022-10-09T02:27:17.227Z,35.65
2022-10-09T02:47:16.090Z,35.65
2022-10-09T03:07:17.213Z,35.65
2022-10-09T03:27:16.445Z,35.65
2022-10-09T03:47:16.426Z,35.65
2022-10-09T04:07:17.058Z,35.65
2022-10-09T04:27:17.188Z,35.66
2022-10-09T04:47:16.669Z,35.66
2022-10-09T05:07:17.185Z,35.66
2022-10-09T05:27:17.184Z,35.66
2022-10-09T05:47:17.198Z,35.66
2022-10-09T06:07:17.169Z,35.66
2022-10-09T06:27:17.024Z,35.66
2022-10-09T07:07:17.145Z,35.67
2022-10-09T07:27:16.361Z,35.67
2022-10-09T07:47:17.119Z,35.67
2022-10-09T08:07:17.102Z,35.67
2022-10-09T08:27:17.045Z,35.67
2022-10-09T08:47:17.023Z,35.67
2022-10-09T09:07:16.459Z,35.67
2022-10-09T09:27:16.950Z,35.67
2022-10-09T10:07:16.886Z,35.67
2022-10-09T10:27:16.868Z,35.67
2022-10-09T10:47:16.299Z,35.66
2022-10-09T11:07:15.683Z,35.65
2022-10-09T11:27:16.757Z,35.65
2022-10-09T11:47:15.975Z,35.64
2022-10-09T12:07:16.174Z,35.63
2022-10-09T12:27:16.665Z,35.61
2022-10-09T12:47:15.862Z,35.6
2022-10-09T13:07:16.601Z,35.6
2022-10-09T13:27:16.566Z,35.59
2022-10-09T13:47:19.606Z,35.57
2022-10-09T14:07:16.551Z,35.56
2022-10-09T14:27:16.476Z,35.55
2022-10-09T14:47:16.457Z,35.54
2022-10-09T15:07:16.427Z,35.53
2022-10-09T15:47:16.455Z,35.51
2022-10-09T16:07:16.323Z,35.51
2022-10-09T16:27:15.517Z,35.51
2022-10-09T16:47:15.731Z,35.51
2022-10-09T17:07:16.232Z,35.51
2022-10-09T17:27:16.207Z,35.52
2022-10-09T17:47:16.189Z,35.52
2022-10-09T18:07:16.173Z,35.52
2022-10-09T18:27:16.150Z,35.52
2022-10-09T18:47:16.135Z,35.53
2022-10-09T19:07:16.144Z,35.53
2022-10-09T19:27:16.107Z,35.53
2022-10-09T19:47:16.105Z,35.54
2022-10-09T20:07:16.081Z,35.54
2022-10-09T20:27:16.075Z,35.54
2022-10-09T20:47:16.072Z,35.54
2022-10-09T21:07:15.272Z,35.55
2022-10-09T21:27:16.041Z,35.55
2022-10-09T21:47:16.024Z,35.55
2022-10-09T22:07:15.890Z,35.56
2022-10-09T22:27:16.004Z,35.56
2022-10-09T23:27:15.988Z,35.56
